Time;durP1;ratioP1;P1;durP2;ratioP2;P2;SDS_P1;SDS_P2;PMS_P1;PMS_P2;Temp;Humidity;BMP_temperature;BMP_pressure;BME280_temperature;BME280_humidity;BME280_pressure;Samples;Min_cycle;Max_cycle;Signal;HPM_P1;HPM_P2
2023/03/18 00:10:19;;;;;;;17.67;8.23;;;;;;;2.57;51.86;100083.09;30625556;28;96722;-62
2023/03/18 00:25:20;;;;;;;17.70;8.35;;;;;;;2.44;52.32;100061.34;30623781;28;96794;-62
2023/03/18 00:40:26;;;;;;;17.98;8.98;;;;;;;2.28;52.49;100046.75;30622465;28;96964;-62
2023/03/18 00:55:27;;;;;;;14.30;7.32;;;;;;;2.08;52.44;100048.34;30621214;28;97249;-62
2023/03/18 01:10:29;;;;;;;15.55;8.57;;;;;;;1.88;52.75;100060.38;30618979;28;97400;-63
2023/03/18 01:25:29;;;;;;;15.98;7.93;;;;;;;1.73;53.17;100053.69;30618543;28;96760;-63
2023/03/18 01:40:32;;;;;;;14.18;7.63;;;;;;;1.63;53.53;100049.13;30617253;28;96589;-62
2023/03/18 01:55:35;;;;;;;17.77;7.10;;;;;;;1.50;53.99;100059.72;30615048;28;96634;-63
2023/03/18 02:10:36;;;;;;;10.57;4.70;;;;;;;1.42;54.38;100032.34;30613968;28;97028;-62
2023/03/18 02:25:56;;;;;;;11.48;6.38;;;;;;;1.37;54.40;100048.44;30613054;28;97156;-63
2023/03/18 02:40:57;;;;;;;14.73;6.53;;;;;;;1.34;54.61;100046.88;30612149;28;96839;-63
2023/03/18 02:55:57;;;;;;;14.32;6.13;;;;;;;1.43;54.74;100026.16;30610699;28;96717;-62
2023/03/18 03:10:58;;;;;;;7.57;3.95;;;;;;;1.85;54.20;100027.28;30609734;28;96726;-62
2023/03/18 03:25:58;;;;;;;6.43;4.22;;;;;;;2.07;53.68;100030.06;30623505;28;97385;-62
2023/03/18 03:40:59;;;;;;;9.27;4.55;;;;;;;2.26;52.83;100038.19;30627125;28;97036;-62
2023/03/18 03:55:59;;;;;;;10.73;3.85;;;;;;;2.48;52.32;100028.59;30626578;28;97428;-62
2023/03/18 04:11:02;;;;;;;7.82;4.18;;;;;;;2.99;50.87;100040.31;30624113;28;96707;-62
2023/03/18 04:26:04;;;;;;;7.13;4.32;;;;;;;3.16;49.99;100055.56;30622310;28;97411;-62
2023/03/18 04:41:05;;;;;;;9.27;4.10;;;;;;;3.01;49.97;100055.00;30619632;28;96790;-62
2023/03/18 04:56:07;;;;;;;7.35;4.22;;;;;;;3.04;50.21;100067.91;30619680;28;96651;-63
2023/03/18 05:11:08;;;;;;;11.73;4.43;;;;;;;3.20;49.84;100059.59;30618717;28;97542;-63
2023/03/18 05:26:10;;;;;;;3.33;2.10;;;;;;;3.60;49.03;100070.44;30617085;28;96981;-62
2023/03/18 05:41:10;;;;;;;5.47;3.53;;;;;;;3.99;48.19;100078.56;30615808;28;96775;-63
2023/03/18 05:56:13;;;;;;;6.38;3.90;;;;;;;4.18;47.92;100081.34;30613229;28;97144;-63
2023/03/18 06:11:14;;;;;;;6.45;3.45;;;;;;;4.40;47.68;100087.38;30612245;28;97723;-62
2023/03/18 06:26:14;;;;;;;7.47;3.33;;;;;;;5.09;47.07;100083.94;30610984;28;96959;-63
2023/03/18 06:41:15;;;;;;;3.55;2.08;;;;;;;6.14;44.52;100093.88;30610344;28;97317;-63
2023/03/18 06:56:16;;;;;;;4.80;2.50;;;;;;;7.38;40.00;100083.75;30607207;28;96649;-65
2023/03/18 07:11:17;;;;;;;6.05;2.45;;;;;;;7.92;37.39;100104.06;30621122;28;97049;-63
2023/03/18 07:26:19;;;;;;;5.50;2.40;;;;;;;8.23;36.05;100124.78;30627343;28;96689;-64
2023/03/18 07:41:19;;;;;;;6.38;2.70;;;;;;;8.62;35.32;100101.34;30617818;28;97124;-65
2023/03/18 07:56:20;;;;;;;5.60;2.55;;;;;;;9.03;34.95;100110.41;30618623;28;96786;-65
2023/03/18 08:11:20;;;;;;;4.00;2.40;;;;;;;9.78;33.76;100118.31;30619723;28;96979;-64
2023/03/18 08:26:21;;;;;;;5.95;3.15;;;;;;;10.58;32.26;100131.84;30634163;28;97004;-64
2023/03/18 08:41:24;;;;;;;4.07;2.50;;;;;;;11.07;31.49;100110.31;30616958;28;96718;-62
2023/03/18 08:56:25;;;;;;;4.80;2.40;;;;;;;11.71;29.35;100119.88;30617056;28;97160;-63
2023/03/18 09:11:26;;;;;;;5.22;2.75;;;;;;;14.14;26.91;100123.44;30615292;28;97415;-63
2023/03/18 09:26:27;;;;;;;6.87;2.17;;;;;;;17.99;21.03;100127.41;30611864;28;97654;-63
2023/03/18 09:41:39;;;;;;;5.97;2.72;;;;;;;21.24;18.05;100118.34;30607077;28;97293;-61
2023/03/18 09:56:42;;;;;;;4.13;2.63;;;;;;;22.39;16.33;100121.81;30611819;28;96746;-61
2023/03/18 10:11:48;;;;;;;3.43;2.50;;;;;;;26.30;13.52;100118.72;30609458;28;97028;-61
2023/03/18 10:27:00;;;;;;;7.40;3.30;;;;;;;26.74;12.57;100119.16;30595976;28;97406;-62
2023/03/18 10:42:18;;;;;;;4.50;2.70;;;;;;;27.97;11.81;100115.56;30616338;28;96708;-62
2023/03/18 10:57:20;;;;;;;5.23;3.10;;;;;;;28.59;11.61;100103.94;30630435;28;96544;-62
2023/03/18 11:12:27;;;;;;;5.93;3.30;;;;;;;31.75;10.28;100099.78;30629300;28;97369;-62
2023/03/18 11:27:36;;;;;;;6.40;3.67;;;;;;;34.50;9.30;100083.47;30628006;28;97500;-62
2023/03/18 11:42:39;;;;;;;7.17;3.70;;;;;;;37.49;7.58;100059.38;30626508;28;97331;-63
2023/03/18 11:58:04;;;;;;;5.70;3.63;;;;;;;37.87;7.13;100066.34;30624396;28;97303;-62
2023/03/18 12:13:13;;;;;;;6.80;4.40;;;;;;;37.30;7.83;100062.84;30623925;28;97285;-63
2023/03/18 12:28:47;;;;;;;6.40;4.10;;;;;;;37.04;7.67;100044.63;30623959;28;97269;-63
2023/03/18 12:43:48;;;;;;;;;;;;;;;37.52;7.33;100059.44;30620642;28;97087;-63
2023/03/18 12:58:52;;;;;;;6.88;5.20;;;;;;;32.21;9.87;100062.75;30619775;28;97298;-63
2023/03/18 13:13:59;;;;;;;7.33;4.90;;;;;;;31.13;10.86;100049.78;30616234;28;97426;-62
2023/03/18 13:29:20;;;;;;;9.70;4.60;;;;;;;33.98;9.84;100043.91;30614755;28;96728;-62
2023/03/18 13:44:27;;;;;;;10.83;5.20;;;;;;;35.29;9.02;100052.47;30614557;28;97553;-62
2023/03/18 13:59:33;;;;;;;7.40;5.43;;;;;;;34.00;9.40;100040.81;30612136;28;96722;-62
2023/03/18 14:14:56;;;;;;;8.33;5.67;;;;;;;26.99;13.54;100023.31;30612430;28;96772;-62
2023/03/18 14:30:28;;;;;;;11.47;6.70;;;;;;;21.82;18.10;100019.84;30611112;28;96935;-62
2023/03/18 14:45:33;;;;;;;9.20;6.23;;;;;;;19.36;21.14;100010.13;30608612;28;96783;-62
2023/03/18 15:00:35;;;;;;;10.63;5.97;;;;;;;17.86;23.08;100009.75;30608168;28;98289;-63
2023/03/18 15:15:36;;;;;;;10.70;5.30;;;;;;;16.77;24.78;100012.63;30608496;28;96743;-62
2023/03/18 15:30:37;;;;;;;10.83;6.67;;;;;;;16.17;25.94;100011.84;30617191;28;97204;-61
2023/03/18 15:45:44;;;;;;;11.45;6.75;;;;;;;15.21;28.02;100021.19;30626321;28;97141;-61
2023/03/18 16:00:45;;;;;;;15.20;8.63;;;;;;;14.44;30.04;100021.38;30624162;28;96715;-62
2023/03/18 16:15:45;;;;;;;10.40;6.28;;;;;;;13.56;32.29;100046.00;30621792;28;97408;-61
2023/03/18 16:30:46;;;;;;;13.80;6.80;;;;;;;12.85;33.74;100049.38;30622158;28;96728;-61
2023/03/18 16:45:49;;;;;;;14.63;7.47;;;;;;;12.27;35.16;100057.28;30618253;28;97109;-61
2023/03/18 17:00:49;;;;;;;14.17;7.03;;;;;;;11.74;35.81;100071.50;30618464;28;96811;-61
2023/03/18 17:15:50;;;;;;;12.30;7.95;;;;;;;11.23;36.96;100077.38;30616011;28;96649;-61
2023/03/18 17:30:51;;;;;;;18.93;8.70;;;;;;;10.77;37.68;100083.50;30616339;28;97211;-61
2023/03/18 17:45:51;;;;;;;23.40;9.73;;;;;;;10.48;38.19;100097.41;30613322;28;96811;-61
2023/03/18 18:00:52;;;;;;;22.67;11.88;;;;;;;10.24;38.64;100098.31;30613068;28;97159;-61
2023/03/18 18:15:53;;;;;;;20.17;10.50;;;;;;;9.98;39.12;100100.16;30611296;28;96735;-62
2023/03/18 18:30:54;;;;;;;19.83;10.00;;;;;;;9.72;39.55;100104.84;30610414;28;97142;-62
2023/03/18 18:45:59;;;;;;;17.13;9.10;;;;;;;9.37;40.14;100110.31;30608396;28;96740;-62
2023/03/18 19:01:00;;;;;;;16.97;8.93;;;;;;;8.91;40.86;100104.56;30612814;28;97341;-62
2023/03/18 19:16:06;;;;;;;15.43;8.97;;;;;;;8.53;41.27;100107.59;30626457;28;96656;-62
2023/03/18 19:31:10;;;;;;;20.90;9.80;;;;;;;8.21;41.99;100106.38;30626887;28;97259;-62
2023/03/18 19:46:26;;;;;;;20.20;9.53;;;;;;;8.03;42.54;100108.28;30626280;28;96900;-62
2023/03/18 20:01:28;;;;;;;18.13;10.47;;;;;;;7.75;42.43;100105.72;30625384;28;96671;-62
2023/03/18 20:16:28;;;;;;;23.60;11.77;;;;;;;7.42;43.34;100113.41;30622524;28;96821;-61
2023/03/18 20:31:29;;;;;;;21.10;10.73;;;;;;;7.24;43.68;100105.47;30623322;28;96811;-62
2023/03/18 20:46:30;;;;;;;25.35;12.60;;;;;;;7.03;44.51;100090.69;30620577;28;97402;-62
2023/03/18 21:01:34;;;;;;;19.70;10.93;;;;;;;6.90;44.79;100092.84;30620205;28;96728;-61
2023/03/18 21:16:35;;;;;;;22.50;11.23;;;;;;;6.65;45.24;100103.16;30615422;28;97406;-62
2023/03/18 21:31:35;;;;;;;20.77;11.40;;;;;;;6.53;46.19;100099.03;30646553;28;96728;-62
2023/03/18 21:46:36;;;;;;;21.95;9.13;;;;;;;6.38;45.90;100086.31;30613974;28;96996;-61
2023/03/18 22:01:37;;;;;;;25.83;11.20;;;;;;;6.14;46.41;100078.03;30613737;28;97231;-61
2023/03/18 22:16:38;;;;;;;24.25;10.32;;;;;;;5.88;47.30;100086.56;30612473;28;96693;-62
2023/03/18 22:31:40;;;;;;;25.77;10.88;;;;;;;5.76;47.14;100094.63;30612891;28;97484;-61
2023/03/18 22:46:40;;;;;;;16.30;9.20;;;;;;;5.62;47.61;100099.53;30611601;28;96756;-61
2023/03/18 23:01:41;;;;;;;16.05;9.13;;;;;;;5.45;47.49;100093.13;30611207;28;96977;-62
2023/03/18 23:16:41;;;;;;;27.80;11.45;;;;;;;5.32;48.01;100104.00;30609461;28;97238;-61
2023/03/18 23:31:42;;;;;;;23.70;10.30;;;;;;;5.18;48.69;100110.50;30608867;28;96613;-62
2023/03/18 23:46:42;;;;;;;24.02;10.63;;;;;;;4.91;48.88;100109.34;30611310;28;96790;-62
